KAFW/AFW METAR and TAF weather

Enter ICAO airport designator
Station Type Date Time Source
KAFW METAR 2022/08/16 17:53 UTC NOAA

KAFW 161753Z 16009KT 10SM FEW060 BKN250 36/18 A2994 RMK AO2 SLP120 T03560183 10361 20278 58009


Station Type Date Time Source
KAFW Decoded METAR 2022/08/16 17:53 UTC NOAA

FORT WORTH ALLIANCE AIRPORT, TX, United States (KAFW) 32-59N 097-19W 233M
Aug 16, 2022 - 01:53 PM EDT / 2022.08.16 1753 UTC
Wind: from the SSE (160 degrees) at 10 MPH (9 KT):0
Visibility: 10 mile(s):0
Sky conditions: mostly cloudy
Temperature: 96.1 F (35.6 C)
Heat index: 98.8 F (37.1 C):1
Dew Point: 64.9 F (18.3 C)
Relative Humidity: 36%
Pressure (altimeter): 29.94 in. Hg (1013 hPa)
Pressure tendency: 0.03 inches (0.9 hPa) lower than three hours ago
ob: KAFW 161753Z 16009KT 10SM FEW060 BKN250 36/18 A2994 RMK AO2 SLP120 T03560183 10361 20278 58009
cycle: 18

Station Type Date Time Source
KAFW TAF 2022/08/16 18:33 UTC NOAA

TAF KAFW 161730Z 1618/1718 22007KT P6SM BKN250
FM171200 25007KT P6SM FEW180
FM171700 32010KT P6SM FEW070 BKN100

Example: see airport list